createdAt,value
2022-12-23T00:00:24.695Z,4.38
2022-12-23T00:02:51.363Z,4.13
2022-12-23T00:05:17.925Z,5.95
2022-12-23T00:07:44.917Z,6.72
2022-12-23T00:10:11.378Z,5.43
2022-12-23T00:12:56.132Z,5.63
2022-12-23T00:15:22.464Z,5.15
2022-12-23T00:17:48.836Z,5.88
2022-12-23T00:20:15.209Z,6.07
2022-12-23T00:22:59.861Z,16.52
2022-12-23T00:25:41.878Z,12.77
2022-12-23T00:28:12.864Z,18.27
2022-12-23T00:30:49.365Z,22.17
2022-12-23T00:33:16.304Z,14.75
2022-12-23T00:35:44.338Z,12.10
2022-12-23T00:38:10.863Z,12.95
2022-12-23T00:40:55.962Z,7.90
2022-12-23T00:43:22.413Z,13.70
2022-12-23T00:45:48.800Z,19.25
2022-12-23T00:48:33.923Z,6.13
2022-12-23T00:51:00.320Z,6.10
2022-12-23T00:53:26.678Z,5.43
2022-12-23T00:55:53.145Z,4.50
2022-12-23T00:58:20.390Z,4.30
2022-12-23T01:01:05.619Z,6.45
2022-12-23T01:03:50.942Z,4.25
2022-12-23T01:06:17.578Z,2.78
2022-12-23T01:08:44.190Z,6.32
2022-12-23T01:11:12.097Z,4.25
2022-12-23T01:16:09.346Z,5.63
2022-12-23T01:18:38.315Z,2.65
2022-12-23T01:21:05.722Z,3.95
2022-12-23T01:23:32.596Z,4.75
2022-12-23T01:25:59.422Z,13.60
2022-12-23T01:28:26.064Z,10.57
2022-12-23T01:30:52.535Z,6.05
2022-12-23T01:33:18.901Z,4.72
2022-12-23T01:35:45.224Z,5.78
2022-12-23T01:38:11.852Z,3.88
2022-12-23T01:40:39.555Z,8.38
2022-12-23T01:43:05.974Z,11.13
2022-12-23T01:45:32.923Z,10.35
2022-12-23T01:48:05.966Z,9.23
2022-12-23T01:50:41.292Z,10.20
2022-12-23T01:53:16.147Z,4.65
2022-12-23T01:55:42.471Z,6.43
2022-12-23T01:58:19.502Z,5.70
2022-12-23T02:01:04.301Z,5.05
2022-12-23T02:03:42.983Z,4.75
2022-12-23T02:06:43.775Z,3.40
2022-12-23T02:09:17.390Z,3.47
2022-12-23T02:11:51.108Z,3.80
2022-12-23T02:14:39.370Z,4.88
2022-12-23T02:17:10.868Z,4.05
2022-12-23T02:19:52.636Z,6.85
2022-12-23T02:22:31.321Z,3.72
2022-12-23T02:25:03.898Z,4.85
2022-12-23T02:27:31.875Z,4.40
2022-12-23T02:30:04.114Z,2.15
2022-12-23T02:32:36.548Z,1.88
2022-12-23T02:35:35.501Z,1.70
2022-12-23T02:38:21.447Z,3.70
2022-12-23T02:40:58.857Z,2.17
2022-12-23T02:43:31.063Z,2.72
2022-12-23T02:46:13.432Z,1.80
2022-12-23T02:48:44.212Z,1.40
2022-12-23T02:51:13.110Z,2.40
2022-12-23T02:54:05.595Z,1.60
2022-12-23T02:56:33.417Z,1.35
2022-12-23T02:59:06.584Z,2.20
2022-12-23T03:01:33.714Z,2.10
2022-12-23T03:04:00.271Z,1.95
2022-12-23T03:06:32.964Z,2.10
2022-12-23T03:08:59.916Z,2.65
2022-12-23T03:11:52.279Z,1.88
2022-12-23T03:14:18.586Z,1.77
2022-12-23T03:16:51.504Z,2.95
2022-12-23T03:19:17.830Z,3.13
2022-12-23T03:21:53.049Z,1.77
2022-12-23T03:24:40.654Z,1.88
2022-12-23T03:29:38.761Z,2.05
2022-12-23T03:32:05.569Z,3.80
2022-12-23T03:34:35.550Z,2.20
2022-12-23T03:37:04.409Z,2.63
2022-12-23T03:39:52.327Z,2.70
2022-12-23T03:42:22.625Z,4.20
2022-12-23T03:45:19.309Z,2.42
2022-12-23T03:48:03.165Z,2.40
2022-12-23T03:50:29.958Z,2.58
2022-12-23T03:52:58.476Z,3.97
2022-12-23T03:55:27.296Z,2.40
2022-12-23T03:58:09.936Z,1.92
2022-12-23T04:00:41.496Z,1.80
2022-12-23T04:03:17.553Z,2.30
2022-12-23T04:05:47.091Z,2.38
2022-12-23T04:08:19.960Z,1.90
2022-12-23T04:10:46.573Z,2.08
2022-12-23T04:13:13.044Z,2.35
2022-12-23T04:15:41.297Z,2.58
2022-12-23T04:18:08.159Z,2.17
2022-12-23T04:20:34.547Z,3.40
2022-12-23T04:23:00.867Z,3.05
2022-12-23T04:25:27.253Z,2.55
2022-12-23T04:27:53.623Z,3.55
2022-12-23T04:30:20.032Z,3.72
2022-12-23T04:32:46.383Z,3.55
2022-12-23T04:35:12.784Z,2.30
2022-12-23T04:37:39.195Z,2.85
2022-12-23T04:40:06.248Z,2.70
2022-12-23T04:42:32.624Z,3.77
2022-12-23T04:44:59.102Z,2.55
2022-12-23T04:47:25.455Z,3.28
2022-12-23T04:49:51.798Z,4.32
2022-12-23T04:52:18.208Z,7.47
2022-12-23T04:54:46.488Z,4.40
2022-12-23T04:57:13.434Z,6.07
2022-12-23T04:59:39.785Z,8.57
2022-12-23T05:02:07.812Z,8.77
2022-12-23T05:04:34.349Z,8.27
2022-12-23T05:07:00.700Z,6.65
2022-12-23T05:09:27.029Z,7.55
2022-12-23T05:11:53.364Z,6.05
2022-12-23T05:14:19.763Z,7.63
2022-12-23T05:16:46.183Z,6.20
2022-12-23T05:19:12.554Z,4.40
2022-12-23T05:21:38.868Z,3.63
2022-12-23T05:24:05.303Z,2.70
2022-12-23T05:26:31.629Z,3.83
2022-12-23T05:28:57.991Z,3.35
2022-12-23T05:31:24.471Z,3.63
2022-12-23T05:33:50.902Z,4.13
2022-12-23T05:36:17.265Z,2.83
2022-12-23T05:38:43.598Z,2.95
2022-12-23T05:41:10.021Z,3.30
2022-12-23T05:43:36.367Z,2.88
2022-12-23T05:46:02.855Z,3.17
2022-12-23T05:48:29.204Z,2.30
2022-12-23T05:50:55.606Z,3.63
2022-12-23T05:53:22.247Z,2.92
2022-12-23T05:55:48.659Z,5.00
2022-12-23T05:58:16.062Z,3.28
2022-12-23T06:00:42.845Z,3.30
2022-12-23T06:03:09.338Z,7.57
2022-12-23T06:05:37.724Z,3.83
2022-12-23T06:08:04.154Z,3.65
2022-12-23T06:10:30.519Z,3.75
2022-12-23T06:12:56.902Z,3.53
2022-12-23T06:15:23.234Z,4.90
2022-12-23T06:17:49.572Z,4.22
2022-12-23T06:20:20.409Z,3.88
2022-12-23T06:22:47.523Z,3.90
2022-12-23T06:25:13.917Z,4.07
2022-12-23T06:27:40.437Z,4.60
2022-12-23T06:30:07.370Z,3.53
2022-12-23T06:32:38.202Z,3.42
2022-12-23T06:35:05.697Z,4.57
2022-12-23T06:37:32.017Z,3.78
2022-12-23T06:39:58.380Z,3.22
2022-12-23T06:42:24.714Z,4.25
2022-12-23T06:44:51.105Z,3.35
2022-12-23T06:47:17.415Z,4.55
2022-12-23T06:49:43.815Z,3.17
2022-12-23T06:52:10.365Z,4.20
2022-12-23T06:54:36.686Z,2.90
2022-12-23T06:57:03.094Z,4.47
2022-12-23T06:59:29.950Z,6.40
2022-12-23T07:01:56.437Z,5.50
2022-12-23T07:04:23.007Z,3.05
2022-12-23T07:06:49.462Z,4.13
2022-12-23T07:09:15.935Z,4.28
2022-12-23T07:11:42.291Z,4.57
2022-12-23T07:14:08.721Z,3.35
2022-12-23T07:16:35.360Z,3.92
2022-12-23T07:21:30.141Z,2.95
2022-12-23T07:23:56.741Z,3.92
2022-12-23T07:26:23.086Z,3.17
2022-12-23T07:28:49.468Z,7.35
2022-12-23T07:31:16.109Z,5.90
2022-12-23T07:33:42.805Z,4.45
2022-12-23T07:36:09.477Z,3.28
2022-12-23T07:38:35.944Z,2.92
2022-12-23T07:41:02.285Z,1.95
2022-12-23T07:43:28.707Z,2.90
2022-12-23T07:45:59.807Z,1.23
2022-12-23T07:48:27.361Z,0.95
2022-12-23T07:50:53.718Z,1.42
2022-12-23T07:53:20.078Z,1.25
2022-12-23T07:55:50.125Z,0.90
2022-12-23T07:58:19.534Z,1.42
2022-12-23T08:00:45.920Z,1.42
2022-12-23T08:03:12.656Z,1.50
2022-12-23T08:05:39.048Z,1.00
2022-12-23T08:08:05.383Z,1.67
2022-12-23T08:10:31.709Z,1.75
2022-12-23T08:13:00.330Z,3.63
2022-12-23T08:15:26.777Z,3.40
2022-12-23T08:17:54.795Z,2.50
2022-12-23T08:20:21.150Z,4.03
2022-12-23T08:22:47.522Z,3.72
2022-12-23T08:25:13.894Z,2.22
2022-12-23T08:27:40.369Z,3.72
2022-12-23T08:30:06.975Z,5.50
2022-12-23T08:32:33.332Z,4.82
2022-12-23T08:34:59.754Z,3.97
2022-12-23T08:37:26.340Z,3.03
2022-12-23T08:39:52.699Z,2.97
2022-12-23T08:42:19.352Z,5.00
2022-12-23T08:44:45.700Z,4.88
2022-12-23T08:47:12.041Z,5.78
2022-12-23T08:49:38.373Z,5.60
2022-12-23T08:52:04.852Z,2.22
2022-12-23T08:54:31.494Z,3.63
2022-12-23T08:56:57.872Z,2.90
2022-12-23T08:59:24.212Z,4.47
2022-12-23T09:01:50.645Z,4.63
2022-12-23T09:04:17.454Z,4.47
2022-12-23T09:06:44.274Z,3.38
2022-12-23T09:09:11.929Z,5.43
2022-12-23T09:11:38.497Z,4.82
2022-12-23T09:14:05.178Z,3.33
2022-12-23T09:16:31.750Z,4.60
2022-12-23T09:18:58.457Z,4.65
2022-12-23T09:21:24.875Z,5.03
2022-12-23T09:23:51.723Z,3.47
2022-12-23T09:26:23.015Z,5.68
2022-12-23T09:28:49.512Z,2.72
2022-12-23T09:31:15.930Z,4.57
2022-12-23T09:33:42.369Z,5.95
2022-12-23T09:36:08.756Z,3.97
2022-12-23T09:38:35.356Z,4.95
2022-12-23T09:41:22.039Z,3.80
2022-12-23T09:44:06.179Z,2.92
2022-12-23T09:46:34.003Z,4.40
2022-12-23T09:49:02.973Z,3.47
2022-12-23T09:51:30.590Z,5.57
2022-12-23T09:54:02.810Z,5.20
2022-12-23T09:56:44.459Z,4.10
2022-12-23T09:59:20.098Z,6.57
2022-12-23T10:01:49.335Z,3.85
2022-12-23T10:04:29.988Z,4.15
2022-12-23T10:07:09.080Z,5.32
2022-12-23T10:09:39.634Z,5.15
2022-12-23T10:12:11.237Z,7.47
2022-12-23T10:14:37.924Z,4.82
2022-12-23T10:17:12.547Z,7.10
2022-12-23T10:19:42.073Z,5.28
2022-12-23T10:22:15.989Z,7.97
2022-12-23T10:24:43.685Z,6.60
2022-12-23T10:29:37.013Z,4.32
2022-12-23T10:32:12.341Z,6.88
2022-12-23T10:34:44.508Z,5.38
2022-12-23T10:37:13.958Z,6.20
2022-12-23T10:39:58.986Z,6.63
2022-12-23T10:42:28.379Z,7.07
2022-12-23T10:45:17.123Z,9.05
2022-12-23T10:48:13.891Z,7.80
2022-12-23T10:50:52.432Z,7.43
2022-12-23T10:53:38.997Z,7.80
2022-12-23T10:56:06.371Z,10.45
2022-12-23T10:58:33.375Z,12.52
2022-12-23T11:01:04.753Z,8.95
2022-12-23T11:03:40.175Z,13.63
2022-12-23T11:06:08.583Z,11.50
2022-12-23T11:08:35.704Z,12.13
2022-12-23T11:11:03.216Z,12.30
2022-12-23T11:13:35.060Z,10.75
2022-12-23T11:16:22.896Z,14.15
2022-12-23T11:19:21.675Z,9.57
2022-12-23T11:21:55.827Z,8.52
2022-12-23T11:24:23.134Z,15.13
2022-12-23T11:26:51.199Z,10.38
2022-12-23T11:29:35.451Z,10.23
2022-12-23T11:32:02.823Z,13.13
2022-12-23T11:34:32.518Z,10.45
2022-12-23T11:37:05.449Z,14.27
2022-12-23T11:39:35.092Z,14.80
2022-12-23T11:44:27.655Z,13.23
2022-12-23T11:46:54.516Z,11.43
2022-12-23T11:49:22.164Z,10.10
2022-12-23T11:52:08.772Z,14.88
2022-12-23T11:54:35.183Z,10.05
2022-12-23T11:57:07.038Z,10.32
2022-12-23T11:59:40.943Z,12.15
2022-12-23T12:02:15.051Z,15.63
2022-12-23T12:04:41.911Z,15.80
2022-12-23T12:07:12.577Z,16.85
2022-12-23T12:09:40.186Z,14.38
2022-12-23T12:12:13.399Z,15.20
2022-12-23T12:14:43.947Z,10.35
2022-12-23T12:17:25.361Z,11.07
2022-12-23T12:20:04.980Z,13.63
2022-12-23T12:22:46.807Z,13.98
2022-12-23T12:25:24.251Z,12.93
2022-12-23T12:27:56.920Z,13.57
2022-12-23T12:30:23.501Z,13.13
2022-12-23T12:33:08.498Z,16.67
2022-12-23T12:35:36.204Z,16.52
2022-12-23T12:38:06.877Z,15.35
2022-12-23T12:40:42.989Z,13.15
2022-12-23T12:43:24.826Z,12.43
2022-12-23T12:46:00.104Z,12.50
2022-12-23T12:48:44.677Z,5.10
2022-12-23T12:51:29.932Z,8.05
2022-12-23T12:54:02.756Z,6.75
2022-12-23T12:56:54.544Z,8.75
2022-12-23T12:59:22.435Z,10.15
2022-12-23T13:04:17.967Z,12.52
2022-12-23T13:06:47.316Z,13.23
2022-12-23T13:09:23.068Z,8.63
2022-12-23T13:11:55.350Z,15.07
2022-12-23T13:14:33.845Z,9.93
2022-12-23T13:17:05.387Z,10.25
2022-12-23T13:19:36.886Z,13.95
2022-12-23T13:22:06.966Z,12.48
2022-12-23T13:24:53.556Z,10.38
2022-12-23T13:27:35.298Z,14.10
2022-12-23T13:30:04.771Z,13.23
2022-12-23T13:32:31.140Z,15.35
2022-12-23T13:35:09.708Z,12.57
2022-12-23T13:37:43.119Z,9.82
2022-12-23T13:40:28.093Z,11.90
2022-12-23T13:43:00.133Z,11.32
2022-12-23T13:45:31.688Z,16.25
2022-12-23T13:48:07.344Z,13.48
2022-12-23T13:50:40.603Z,11.75
2022-12-23T13:53:09.919Z,13.18
2022-12-23T13:55:36.208Z,11.40
2022-12-23T13:58:05.562Z,11.73
2022-12-23T14:00:33.267Z,15.05
2022-12-23T14:03:00.150Z,9.77
2022-12-23T14:05:28.944Z,12.67
2022-12-23T14:07:55.919Z,10.90
2022-12-23T14:10:24.099Z,12.27
2022-12-23T14:12:51.749Z,12.52
2022-12-23T14:15:19.016Z,16.92
2022-12-23T14:17:50.674Z,16.85
2022-12-23T14:20:25.730Z,10.77
2022-12-23T14:23:00.067Z,14.88
2022-12-23T14:25:32.605Z,13.15
2022-12-23T14:27:58.947Z,11.20
2022-12-23T14:30:31.622Z,10.45
2022-12-23T14:32:59.078Z,12.63
2022-12-23T14:35:48.698Z,10.23
2022-12-23T14:38:15.089Z,14.52
2022-12-23T14:40:41.433Z,9.50
2022-12-23T14:43:17.040Z,14.63
2022-12-23T14:45:43.734Z,15.05
2022-12-23T14:48:28.962Z,22.33
2022-12-23T14:51:18.539Z,15.23
2022-12-23T14:53:54.013Z,15.88
2022-12-23T14:56:32.630Z,14.75
2022-12-23T14:59:17.676Z,17.23
2022-12-23T15:01:52.548Z,15.90
2022-12-23T15:04:21.488Z,17.70
2022-12-23T15:06:49.500Z,19.58
2022-12-23T15:09:22.532Z,21.10
2022-12-23T15:11:48.953Z,21.75
2022-12-23T15:14:32.664Z,18.13
2022-12-23T15:16:59.071Z,17.63
2022-12-23T15:19:26.328Z,23.15
2022-12-23T15:22:13.514Z,21.33
2022-12-23T15:24:46.171Z,18.77
2022-12-23T15:27:27.235Z,21.25
2022-12-23T15:29:54.102Z,20.60
2022-12-23T15:32:22.035Z,19.92
2022-12-23T15:34:49.173Z,20.30
2022-12-23T15:37:22.081Z,21.85
2022-12-23T15:39:52.400Z,18.10
2022-12-23T15:42:26.102Z,25.30
2022-12-23T15:44:52.518Z,22.52
2022-12-23T15:47:21.756Z,23.33
2022-12-23T15:49:48.188Z,19.02
2022-12-23T15:52:20.144Z,17.77
2022-12-23T15:54:56.360Z,25.15
2022-12-23T15:57:24.497Z,15.23
2022-12-23T15:59:51.222Z,28.15
2022-12-23T16:05:38.586Z,16.90
2022-12-23T16:08:28.280Z,22.65
2022-12-23T16:11:01.971Z,23.70
2022-12-23T16:13:28.412Z,22.88
2022-12-23T16:15:55.134Z,22.15
2022-12-23T16:18:21.538Z,26.08
2022-12-23T16:20:53.486Z,19.63
2022-12-23T16:23:20.782Z,21.23
2022-12-23T16:25:50.302Z,14.10
2022-12-23T16:28:23.066Z,21.88
2022-12-23T16:30:52.033Z,30.67
2022-12-23T16:33:25.112Z,20.98
2022-12-23T16:35:53.440Z,23.08
2022-12-23T16:38:21.180Z,19.55
2022-12-23T16:40:49.113Z,22.30
2022-12-23T16:45:43.304Z,21.40
2022-12-23T16:50:36.469Z,26.33
2022-12-23T16:53:03.876Z,21.38
2022-12-23T16:55:30.248Z,32.78
2022-12-23T16:57:56.567Z,25.35
2022-12-23T17:00:22.987Z,26.10
2022-12-23T17:02:49.503Z,22.38
2022-12-23T17:05:19.699Z,26.83
2022-12-23T17:07:46.372Z,27.85
2022-12-23T17:10:13.499Z,25.35
2022-12-23T17:12:40.331Z,19.85
2022-12-23T17:15:07.272Z,19.33
2022-12-23T17:17:38.610Z,24.85
2022-12-23T17:20:05.231Z,22.95
2022-12-23T17:22:33.734Z,24.48
2022-12-23T17:25:00.078Z,24.80
2022-12-23T17:27:26.529Z,30.85
2022-12-23T17:29:52.985Z,23.95
2022-12-23T17:32:19.381Z,22.80
2022-12-23T17:34:45.828Z,25.25
2022-12-23T17:37:21.647Z,16.80
2022-12-23T17:39:47.984Z,26.80
2022-12-23T17:42:20.272Z,29.80
2022-12-23T17:44:51.455Z,26.87
2022-12-23T17:47:20.464Z,26.25
2022-12-23T17:49:47.275Z,25.45
2022-12-23T17:52:15.055Z,29.00
2022-12-23T17:54:41.428Z,25.30
2022-12-23T17:57:22.790Z,23.95
2022-12-23T17:59:49.976Z,28.30
2022-12-23T18:02:26.877Z,28.00
2022-12-23T18:04:53.637Z,32.13
2022-12-23T18:07:20.161Z,22.45
2022-12-23T18:09:47.088Z,27.30
2022-12-23T18:12:32.048Z,24.90
2022-12-23T18:14:58.494Z,21.83
2022-12-23T18:17:24.872Z,23.08
2022-12-23T18:19:51.316Z,23.30
2022-12-23T18:22:19.433Z,27.45
2022-12-23T18:24:46.612Z,22.67
2022-12-23T18:27:17.765Z,25.23
2022-12-23T18:29:44.758Z,24.77
2022-12-23T18:32:22.494Z,22.17
2022-12-23T18:37:15.792Z,25.02
2022-12-23T18:39:42.201Z,22.77
2022-12-23T18:42:11.483Z,31.08
2022-12-23T18:44:37.878Z,26.88
2022-12-23T18:47:04.298Z,24.60
2022-12-23T18:49:30.632Z,23.30
2022-12-23T18:51:56.947Z,27.23
2022-12-23T18:54:23.271Z,27.88
2022-12-23T18:56:49.654Z,22.55
2022-12-23T18:59:18.572Z,30.27
2022-12-23T19:01:46.843Z,23.50
2022-12-23T19:04:13.610Z,22.63
2022-12-23T19:06:40.237Z,29.58
2022-12-23T19:09:07.245Z,25.08
2022-12-23T19:11:33.754Z,24.73
2022-12-23T19:14:00.091Z,20.92
2022-12-23T19:16:26.481Z,31.77
2022-12-23T19:18:52.902Z,25.08
2022-12-23T19:21:19.526Z,28.83
2022-12-23T19:23:45.852Z,28.63
2022-12-23T19:26:13.312Z,28.52
2022-12-23T19:28:41.379Z,24.42
2022-12-23T19:31:09.537Z,26.48
2022-12-23T19:33:36.821Z,27.80
2022-12-23T19:36:07.778Z,28.67
2022-12-23T19:38:34.147Z,24.20
2022-12-23T19:41:00.460Z,23.73
2022-12-23T19:43:26.827Z,29.00
2022-12-23T19:45:59.746Z,27.35
2022-12-23T19:48:26.815Z,25.73
2022-12-23T19:50:59.980Z,24.37
2022-12-23T19:53:26.801Z,23.08
2022-12-23T19:56:00.035Z,23.75
2022-12-23T19:58:26.735Z,28.77
2022-12-23T20:00:53.152Z,29.30
2022-12-23T20:03:19.558Z,19.55
2022-12-23T20:05:52.823Z,23.92
2022-12-23T20:08:19.271Z,24.50
2022-12-23T20:10:45.680Z,23.25
2022-12-23T20:13:12.029Z,17.65
2022-12-23T20:15:38.415Z,18.48
2022-12-23T20:18:04.904Z,21.80
2022-12-23T20:20:31.430Z,17.10
2022-12-23T20:22:57.841Z,18.77
2022-12-23T20:25:24.270Z,17.98
2022-12-23T20:27:50.635Z,20.27
2022-12-23T20:30:16.981Z,17.77
2022-12-23T20:32:43.335Z,20.92
2022-12-23T20:35:09.816Z,19.95
2022-12-23T20:37:36.122Z,21.83
2022-12-23T20:40:02.447Z,20.02
2022-12-23T20:42:28.803Z,18.90
2022-12-23T20:44:55.106Z,22.85
2022-12-23T20:47:21.446Z,24.75
2022-12-23T20:49:47.812Z,18.15
2022-12-23T20:52:14.144Z,26.63
2022-12-23T20:54:40.608Z,19.02
2022-12-23T20:57:07.073Z,17.88
2022-12-23T20:59:33.384Z,21.77
2022-12-23T21:02:00.910Z,22.55
2022-12-23T21:04:27.363Z,21.10
2022-12-23T21:06:53.755Z,17.33
2022-12-23T21:09:20.177Z,21.02
2022-12-23T21:11:46.911Z,23.73
2022-12-23T21:14:14.438Z,26.10
2022-12-23T21:16:41.276Z,19.50
2022-12-23T21:19:08.565Z,19.27
2022-12-23T21:21:35.167Z,22.00
2022-12-23T21:24:04.156Z,21.20
2022-12-23T21:26:31.810Z,19.77
2022-12-23T21:28:59.405Z,19.70
2022-12-23T21:31:26.252Z,23.65
2022-12-23T21:33:52.776Z,26.90
2022-12-23T21:36:20.918Z,24.88
2022-12-23T21:38:47.801Z,18.58
2022-12-23T21:41:21.308Z,17.98
2022-12-23T21:43:48.392Z,24.45
2022-12-23T21:46:15.984Z,16.50
2022-12-23T21:48:42.437Z,21.63
2022-12-23T21:51:08.800Z,19.25
2022-12-23T21:53:35.805Z,21.45
2022-12-23T21:56:03.368Z,24.97
2022-12-23T21:58:30.072Z,23.33
2022-12-23T22:00:56.496Z,19.70
2022-12-23T22:03:22.862Z,20.10
2022-12-23T22:05:49.193Z,19.02
2022-12-23T22:08:15.638Z,26.60
2022-12-23T22:10:41.964Z,23.50
2022-12-23T22:13:08.401Z,24.17
2022-12-23T22:15:39.698Z,17.63
2022-12-23T22:18:06.007Z,24.60
2022-12-23T22:20:32.334Z,24.48
2022-12-23T22:22:58.681Z,20.63
2022-12-23T22:25:25.079Z,18.75
2022-12-23T22:27:51.417Z,20.92
2022-12-23T22:30:17.797Z,19.40
2022-12-23T22:32:44.163Z,19.08
2022-12-23T22:35:10.543Z,20.35
2022-12-23T22:37:36.865Z,24.52
2022-12-23T22:40:03.633Z,22.13
2022-12-23T22:42:29.957Z,23.85
2022-12-23T22:44:56.290Z,24.95
2022-12-23T22:47:22.626Z,22.58
2022-12-23T22:49:49.017Z,19.73
2022-12-23T22:52:15.396Z,24.85
2022-12-23T22:54:41.885Z,27.35
2022-12-23T22:57:09.453Z,31.52
2022-12-23T22:59:35.756Z,21.77
2022-12-23T23:02:02.146Z,24.40
2022-12-23T23:04:28.541Z,22.60
2022-12-23T23:06:54.879Z,21.95
2022-12-23T23:09:21.856Z,21.08
2022-12-23T23:11:49.193Z,19.60
2022-12-23T23:14:15.973Z,21.13
2022-12-23T23:16:42.539Z,26.88
2022-12-23T23:19:10.643Z,25.98
2022-12-23T23:21:37.724Z,23.95
2022-12-23T23:24:04.714Z,19.70
2022-12-23T23:26:31.175Z,25.27
2022-12-23T23:28:57.553Z,21.58
2022-12-23T23:34:11.017Z,22.50
2022-12-23T23:36:37.452Z,21.67
2022-12-23T23:39:03.939Z,22.60
2022-12-23T23:41:30.326Z,20.75
2022-12-23T23:43:56.724Z,16.17
2022-12-23T23:46:23.126Z,16.55
2022-12-23T23:48:49.536Z,11.40
2022-12-23T23:51:15.939Z,26.25
2022-12-23T23:53:42.281Z,18.67
2022-12-23T23:56:09.064Z,24.00
2022-12-23T23:58:36.299Z,14.43
